createdAt,value
2022-11-11T00:01:54.184Z,78.28
2022-11-11T00:04:23.720Z,78.74
2022-11-11T00:06:54.067Z,78.47
2022-11-11T00:09:23.607Z,78.62
2022-11-11T00:11:53.819Z,79.27
2022-11-11T00:14:24.219Z,78.72
2022-11-11T00:17:13.330Z,78.88
2022-11-11T00:20:00.116Z,79.19
2022-11-11T00:22:47.089Z,79.02
2022-11-11T00:25:18.033Z,79.81
2022-11-11T00:27:47.868Z,80.25
2022-11-11T00:30:17.512Z,79.94
2022-11-11T00:32:48.383Z,79.95
2022-11-11T00:35:35.485Z,79.67
2022-11-11T00:38:08.580Z,79.77
2022-11-11T00:40:38.589Z,79.37
2022-11-11T00:43:08.184Z,78.96
2022-11-11T00:45:37.867Z,79.12
2022-11-11T00:48:27.305Z,79.47
2022-11-11T00:51:02.668Z,78.97
2022-11-11T00:53:35.381Z,78.79
2022-11-11T00:56:05.168Z,78.69
2022-11-11T00:58:34.942Z,78.28
2022-11-11T01:01:04.546Z,79.33
2022-11-11T01:03:35.379Z,79.74
2022-11-11T01:06:05.347Z,78.94
2022-11-11T01:08:35.056Z,79.45
2022-11-11T01:11:15.760Z,78.86
2022-11-11T01:13:46.012Z,78.96
2022-11-11T01:16:16.689Z,79.26
2022-11-11T01:18:47.923Z,78.84
2022-11-11T01:21:19.211Z,79.20
2022-11-11T01:23:49.998Z,79.05
2022-11-11T01:26:22.548Z,79.44
2022-11-11T01:28:55.237Z,79.36
2022-11-11T01:31:26.117Z,79.69
2022-11-11T01:33:57.126Z,80.63
2022-11-11T01:36:27.823Z,79.28
2022-11-11T01:38:58.308Z,80.38
2022-11-11T01:41:34.892Z,79.54
2022-11-11T01:44:15.537Z,79.81
2022-11-11T01:46:47.124Z,79.04
2022-11-11T01:49:20.956Z,80.11
2022-11-11T01:51:56.472Z,80.16
2022-11-11T01:54:28.840Z,79.22
2022-11-11T01:57:02.801Z,79.86
2022-11-11T01:59:33.788Z,79.61
2022-11-11T02:02:07.153Z,80.27
2022-11-11T02:04:56.457Z,80.89
2022-11-11T02:07:27.531Z,79.96
2022-11-11T02:09:57.468Z,79.58
2022-11-11T02:12:45.470Z,79.65
2022-11-11T02:15:15.721Z,79.01
2022-11-11T02:17:47.742Z,79.54
2022-11-11T02:20:20.352Z,80.37
2022-11-11T02:22:53.164Z,80.37
2022-11-11T02:25:26.443Z,79.78
2022-11-11T02:27:59.201Z,79.55
2022-11-11T02:30:28.928Z,79.98
2022-11-11T02:32:58.494Z,80.15
2022-11-11T02:35:31.656Z,79.71
2022-11-11T02:38:02.104Z,80.51
2022-11-11T02:40:36.541Z,80.64
2022-11-11T02:43:06.161Z,80.72
2022-11-11T02:45:35.752Z,79.91
2022-11-11T02:48:05.767Z,80.45
2022-11-11T02:50:35.404Z,80.30
2022-11-11T02:53:05.190Z,80.66
2022-11-11T02:55:36.204Z,80.61
2022-11-11T02:58:05.833Z,80.52
2022-11-11T03:00:35.458Z,79.66
2022-11-11T03:03:05.152Z,79.57
2022-11-11T03:05:35.116Z,79.49
2022-11-11T03:08:04.969Z,80.08
2022-11-11T03:10:36.156Z,79.61
2022-11-11T03:13:06.372Z,79.78
2022-11-11T03:15:36.880Z,80.01
2022-11-11T03:18:05.465Z,80.36
2022-11-11T03:20:52.263Z,80.16
2022-11-11T03:23:22.158Z,80.35
2022-11-11T03:25:58.116Z,79.76
2022-11-11T03:28:28.007Z,79.92
2022-11-11T03:31:03.922Z,79.66
2022-11-11T03:33:33.772Z,80.39
2022-11-11T03:36:03.410Z,80.09
2022-11-11T03:38:31.892Z,79.68
2022-11-11T03:41:02.860Z,80.22
2022-11-11T03:43:33.150Z,79.90
2022-11-11T03:46:03.383Z,80.10
2022-11-11T03:48:34.845Z,79.16
2022-11-11T03:51:04.459Z,79.69
2022-11-11T03:53:33.951Z,79.88
2022-11-11T03:56:05.005Z,79.63
2022-11-11T03:58:34.490Z,79.61
2022-11-11T04:01:24.405Z,79.86
2022-11-11T04:04:11.321Z,79.43
2022-11-11T04:06:58.338Z,78.93
2022-11-11T04:09:45.097Z,79.47
2022-11-11T04:12:16.714Z,79.54
2022-11-11T04:15:04.102Z,79.67
2022-11-11T04:17:33.554Z,79.67
2022-11-11T04:20:20.379Z,79.18
2022-11-11T04:22:53.664Z,78.91
2022-11-11T04:25:41.840Z,78.86
2022-11-11T04:28:30.281Z,79.06
2022-11-11T04:30:59.796Z,79.04
2022-11-11T04:33:28.345Z,79.05
2022-11-11T04:35:57.856Z,78.54
2022-11-11T04:38:56.355Z,78.47
2022-11-11T04:41:36.048Z,79.07
2022-11-11T04:44:34.106Z,79.62
2022-11-11T04:47:03.605Z,79.53
2022-11-11T04:49:33.105Z,79.51
2022-11-11T04:52:19.964Z,79.14
2022-11-11T04:55:06.758Z,79.05
2022-11-11T04:57:36.233Z,79.08
2022-11-11T05:00:08.035Z,78.86
2022-11-11T05:02:55.194Z,78.91
2022-11-11T05:05:25.535Z,78.99
2022-11-11T05:08:12.609Z,78.96
2022-11-11T05:10:42.101Z,79.38
2022-11-11T05:13:29.678Z,79.65
2022-11-11T05:16:18.962Z,79.67
2022-11-11T05:19:05.875Z,79.77
2022-11-11T05:21:35.625Z,79.16
2022-11-11T05:24:22.834Z,79.00
2022-11-11T05:26:52.679Z,80.10
2022-11-11T05:29:22.128Z,79.50
2022-11-11T05:31:54.300Z,79.42
2022-11-11T05:34:23.871Z,79.69
2022-11-11T05:36:53.506Z,79.49
2022-11-11T05:39:22.940Z,79.86
2022-11-11T05:41:52.482Z,79.21
2022-11-11T05:44:22.302Z,79.55
2022-11-11T05:46:51.899Z,78.94
2022-11-11T05:49:23.693Z,79.07
2022-11-11T05:51:55.695Z,80.03
2022-11-11T05:54:25.472Z,80.24
2022-11-11T05:56:55.061Z,79.40
2022-11-11T05:59:24.902Z,78.99
2022-11-11T06:01:54.437Z,79.26
2022-11-11T06:04:26.108Z,79.19
2022-11-11T06:06:56.036Z,79.48
2022-11-11T06:09:25.801Z,79.34
2022-11-11T06:11:55.392Z,79.07
2022-11-11T06:14:24.970Z,79.33
2022-11-11T06:16:54.552Z,78.58
2022-11-11T06:19:25.525Z,79.20
2022-11-11T06:22:02.003Z,78.50
2022-11-11T06:24:31.680Z,79.46
2022-11-11T06:27:00.299Z,78.96
2022-11-11T06:29:29.851Z,78.54
2022-11-11T06:31:59.431Z,79.08
2022-11-11T06:34:30.576Z,78.71
2022-11-11T06:37:00.134Z,78.92
2022-11-11T06:39:31.026Z,78.50
2022-11-11T06:42:00.683Z,78.41
2022-11-11T06:44:30.429Z,78.49
2022-11-11T06:46:59.918Z,78.87
2022-11-11T06:49:30.795Z,78.40
2022-11-11T06:52:00.353Z,77.76
2022-11-11T06:54:29.980Z,77.57
2022-11-11T06:57:00.650Z,77.76
2022-11-11T06:59:31.840Z,77.85
2022-11-11T07:02:01.274Z,78.65
2022-11-11T07:04:32.296Z,78.17
2022-11-11T07:07:01.808Z,78.80
2022-11-11T07:09:31.411Z,77.80
2022-11-11T07:12:01.612Z,77.84
2022-11-11T07:14:31.806Z,77.30
2022-11-11T07:17:05.946Z,76.89
2022-11-11T07:19:37.512Z,76.56
2022-11-11T07:22:07.094Z,77.12
2022-11-11T07:24:37.034Z,76.79
2022-11-11T07:27:06.770Z,76.40
2022-11-11T07:29:36.340Z,76.73
2022-11-11T07:32:05.946Z,76.48
2022-11-11T07:34:36.937Z,76.03
2022-11-11T07:37:06.538Z,76.81
2022-11-11T07:39:36.098Z,76.34
2022-11-11T07:42:05.693Z,76.15
2022-11-11T07:44:35.368Z,76.47
2022-11-11T07:47:05.024Z,75.55
2022-11-11T07:49:34.637Z,75.51
2022-11-11T07:52:05.854Z,75.15
2022-11-11T07:54:35.489Z,74.58
2022-11-11T07:57:05.199Z,74.22
2022-11-11T07:59:34.953Z,74.32
2022-11-11T08:02:04.511Z,73.94
2022-11-11T08:04:34.253Z,73.52
2022-11-11T08:07:05.428Z,73.46
2022-11-11T08:09:35.331Z,73.57
2022-11-11T08:12:22.965Z,73.73
2022-11-11T08:14:54.310Z,73.92
2022-11-11T08:17:25.549Z,73.59
2022-11-11T08:19:55.165Z,73.01
2022-11-11T08:22:26.025Z,72.83
2022-11-11T08:25:04.708Z,72.38
2022-11-11T08:27:35.193Z,72.11
2022-11-11T08:30:05.936Z,72.02
2022-11-11T08:32:35.763Z,71.96
2022-11-11T08:35:05.550Z,72.17
2022-11-11T08:37:36.574Z,72.30
2022-11-11T08:40:06.899Z,72.22
2022-11-11T08:42:36.505Z,72.67
2022-11-11T08:45:06.447Z,72.48
2022-11-11T08:47:36.184Z,71.84
2022-11-11T08:50:07.907Z,71.96
2022-11-11T08:52:39.458Z,71.80
2022-11-11T08:55:09.126Z,71.52
2022-11-11T08:57:38.958Z,71.54
2022-11-11T09:00:09.389Z,71.57
2022-11-11T09:02:39.024Z,71.48
2022-11-11T09:05:08.702Z,71.29
2022-11-11T09:07:39.628Z,71.36
2022-11-11T09:10:10.004Z,71.31
2022-11-11T09:12:40.233Z,71.53
2022-11-11T09:15:10.668Z,70.97
2022-11-11T09:17:40.543Z,70.90
2022-11-11T09:20:10.948Z,71.10
2022-11-11T09:22:44.864Z,71.02
2022-11-11T09:25:14.760Z,70.96
2022-11-11T09:27:44.621Z,70.83
2022-11-11T09:30:14.418Z,71.00
2022-11-11T09:32:44.005Z,71.16
2022-11-11T09:35:13.566Z,71.25
2022-11-11T09:37:53.428Z,70.91
2022-11-11T09:40:24.213Z,71.38
2022-11-11T09:42:59.164Z,71.10
2022-11-11T09:45:33.392Z,71.23
2022-11-11T09:48:10.442Z,71.20
2022-11-11T09:50:41.737Z,71.19
2022-11-11T09:53:17.753Z,70.96
2022-11-11T09:55:50.486Z,70.78
2022-11-11T09:58:21.636Z,70.99
2022-11-11T10:00:56.666Z,70.99
2022-11-11T10:03:30.798Z,70.87
2022-11-11T10:06:04.439Z,70.90
2022-11-11T10:08:38.381Z,70.88
2022-11-11T10:11:13.832Z,70.86
2022-11-11T10:13:44.957Z,70.85
2022-11-11T10:16:21.113Z,71.06
2022-11-11T10:18:57.413Z,70.80
2022-11-11T10:21:50.940Z,71.02
2022-11-11T10:24:29.196Z,71.10
2022-11-11T10:27:00.522Z,71.02
2022-11-11T10:29:32.801Z,70.98
2022-11-11T10:32:06.322Z,71.07
2022-11-11T10:34:36.174Z,70.85
2022-11-11T10:37:16.111Z,70.89
2022-11-11T10:39:51.547Z,71.10
2022-11-11T10:42:21.156Z,70.99
2022-11-11T10:44:52.570Z,71.33
2022-11-11T10:47:29.544Z,71.42
2022-11-11T10:50:03.213Z,71.01
2022-11-11T10:52:35.312Z,71.23
2022-11-11T10:55:08.395Z,71.36
2022-11-11T10:57:39.891Z,71.45
2022-11-11T11:00:10.535Z,71.60
2022-11-11T11:02:43.129Z,71.49
2022-11-11T11:05:14.933Z,71.96
2022-11-11T11:07:47.639Z,72.19
2022-11-11T11:10:20.652Z,71.98
2022-11-11T11:12:54.114Z,72.18
2022-11-11T11:15:25.944Z,72.40
2022-11-11T11:17:58.877Z,72.55
2022-11-11T11:20:28.652Z,72.57
2022-11-11T11:22:59.699Z,72.85
2022-11-11T11:25:33.259Z,72.85
2022-11-11T11:28:07.438Z,73.00
2022-11-11T11:30:37.226Z,73.58
2022-11-11T11:33:07.379Z,73.45
2022-11-11T11:35:38.166Z,73.62
2022-11-11T11:38:08.821Z,73.67
2022-11-11T11:40:50.809Z,73.84
2022-11-11T11:43:26.296Z,74.29
2022-11-11T11:45:57.866Z,74.24
2022-11-11T11:48:34.132Z,74.43
2022-11-11T11:51:10.620Z,74.39
2022-11-11T11:53:47.546Z,73.95
2022-11-11T11:56:21.687Z,74.41
2022-11-11T11:58:57.489Z,73.92
2022-11-11T12:01:31.747Z,74.55
2022-11-11T12:04:19.224Z,74.79
2022-11-11T12:06:53.622Z,74.95
2022-11-11T12:09:28.997Z,75.14
2022-11-11T12:12:05.257Z,75.63
2022-11-11T12:14:40.066Z,76.09
2022-11-11T12:17:19.651Z,77.18
2022-11-11T12:19:57.603Z,77.50
2022-11-11T12:22:40.144Z,77.00
2022-11-11T12:25:17.581Z,77.79
2022-11-11T12:27:57.621Z,77.84
2022-11-11T12:30:29.209Z,77.99
2022-11-11T12:33:06.944Z,77.95
2022-11-11T12:35:50.138Z,79.21
2022-11-11T12:38:25.250Z,79.73
2022-11-11T12:40:59.222Z,80.00
2022-11-11T12:43:36.534Z,80.75
2022-11-11T12:46:12.528Z,81.17
2022-11-11T12:48:55.474Z,82.22
2022-11-11T12:51:32.767Z,82.81
2022-11-11T12:54:07.041Z,83.39
2022-11-11T12:56:42.208Z,84.35
2022-11-11T12:59:19.554Z,84.40
2022-11-11T13:01:53.352Z,85.69
2022-11-11T13:04:37.694Z,86.99
2022-11-11T13:07:15.568Z,87.55
2022-11-11T13:09:57.464Z,88.76
2022-11-11T13:12:32.724Z,89.34
2022-11-11T13:15:05.959Z,89.47
2022-11-11T13:17:35.825Z,89.64
2022-11-11T13:20:13.546Z,89.88
2022-11-11T13:22:43.126Z,89.79
2022-11-11T13:25:17.220Z,89.78
2022-11-11T13:27:50.582Z,90.40
2022-11-11T13:30:40.949Z,90.57
2022-11-11T13:33:18.144Z,90.96
2022-11-11T13:35:53.573Z,90.71
2022-11-11T13:38:25.869Z,91.45
2022-11-11T13:40:57.127Z,91.85
2022-11-11T13:43:30.962Z,91.70
2022-11-11T13:46:02.658Z,91.62
2022-11-11T13:48:35.550Z,91.66
2022-11-11T13:51:12.730Z,91.34
2022-11-11T13:53:43.172Z,91.57
2022-11-11T13:56:13.107Z,91.56
2022-11-11T13:58:48.189Z,91.58
2022-11-11T14:01:18.658Z,91.52
2022-11-11T14:04:05.879Z,91.52
2022-11-11T14:06:49.967Z,91.95
2022-11-11T14:09:38.326Z,91.63
2022-11-11T14:12:21.773Z,92.00
2022-11-11T14:14:57.592Z,92.17
2022-11-11T14:17:28.976Z,92.34
2022-11-11T14:19:58.867Z,92.27
2022-11-11T14:22:34.094Z,92.14
2022-11-11T14:25:21.239Z,92.61
2022-11-11T14:27:51.237Z,93.16
2022-11-11T14:30:44.743Z,93.12
2022-11-11T14:33:20.852Z,93.94
2022-11-11T14:35:56.949Z,94.24
2022-11-11T14:38:39.711Z,94.44
2022-11-11T14:41:28.301Z,94.42
2022-11-11T14:44:17.909Z,94.96
2022-11-11T14:47:02.407Z,94.43
2022-11-11T14:49:47.509Z,94.23
2022-11-11T14:52:23.109Z,93.42
2022-11-11T14:55:06.451Z,93.22
2022-11-11T14:57:36.719Z,93.30
2022-11-11T15:00:11.423Z,93.65
2022-11-11T15:02:46.272Z,93.50
2022-11-11T15:05:19.063Z,93.41
2022-11-11T15:08:00.078Z,93.78
2022-11-11T15:10:47.422Z,94.14
2022-11-11T15:13:45.912Z,91.65
2022-11-11T15:16:21.657Z,91.66
2022-11-11T15:19:04.337Z,89.80
2022-11-11T15:21:36.413Z,89.31
2022-11-11T15:24:20.126Z,88.12
2022-11-11T15:26:55.159Z,85.84
2022-11-11T15:29:44.555Z,86.01
2022-11-11T15:32:21.757Z,86.96
2022-11-11T15:34:57.481Z,84.19
2022-11-11T15:37:28.547Z,83.33
2022-11-11T15:39:58.816Z,83.33
2022-11-11T15:42:30.793Z,81.98
2022-11-11T15:45:04.954Z,80.93
2022-11-11T15:47:36.952Z,80.89
2022-11-11T15:50:17.334Z,81.47
2022-11-11T15:52:47.232Z,80.69
2022-11-11T15:55:22.573Z,81.73
2022-11-11T15:57:52.524Z,80.14
2022-11-11T16:00:31.312Z,80.79
2022-11-11T16:03:01.206Z,79.74
2022-11-11T16:05:32.307Z,80.00
2022-11-11T16:08:05.925Z,79.98
2022-11-11T16:10:36.393Z,80.69
2022-11-11T16:13:08.979Z,80.34
2022-11-11T16:15:43.796Z,80.64
2022-11-11T16:18:19.241Z,81.03
2022-11-11T16:20:51.234Z,80.38
2022-11-11T16:23:21.963Z,81.20
2022-11-11T16:25:53.883Z,82.52
2022-11-11T16:28:24.197Z,82.79
2022-11-11T16:30:55.588Z,82.99
2022-11-11T16:33:35.364Z,82.64
2022-11-11T16:36:08.522Z,83.02
2022-11-11T16:38:39.863Z,82.91
2022-11-11T16:41:24.592Z,83.49
2022-11-11T16:43:57.936Z,82.55
2022-11-11T16:46:42.878Z,83.23
2022-11-11T16:49:17.416Z,83.90
2022-11-11T16:51:47.678Z,82.83
2022-11-11T16:54:19.460Z,81.95
2022-11-11T16:56:50.925Z,82.01
2022-11-11T16:59:22.562Z,82.17
2022-11-11T17:01:54.675Z,82.38
2022-11-11T17:04:25.545Z,82.64
2022-11-11T17:06:56.731Z,82.83
2022-11-11T17:09:31.284Z,83.07
2022-11-11T17:12:02.773Z,82.79
2022-11-11T17:14:34.859Z,83.29
2022-11-11T17:17:09.129Z,84.43
2022-11-11T17:19:38.854Z,84.16
2022-11-11T17:22:09.782Z,85.25
2022-11-11T17:24:39.888Z,85.96
2022-11-11T17:27:09.764Z,86.05
2022-11-11T17:29:39.485Z,87.20
2022-11-11T17:32:12.497Z,87.84
2022-11-11T17:34:42.069Z,87.46
2022-11-11T17:37:12.133Z,88.44
2022-11-11T17:39:44.890Z,88.54
2022-11-11T17:42:15.016Z,88.85
2022-11-11T17:44:44.620Z,89.79
2022-11-11T17:47:16.877Z,90.47
2022-11-11T17:50:02.616Z,91.22
2022-11-11T17:52:32.226Z,90.47
2022-11-11T17:55:01.833Z,90.89
2022-11-11T17:57:32.258Z,91.58
2022-11-11T18:00:01.838Z,91.14
2022-11-11T18:02:32.848Z,91.60
2022-11-11T18:05:02.425Z,92.40
2022-11-11T18:07:32.085Z,93.04
2022-11-11T18:10:02.703Z,92.74
2022-11-11T18:12:33.207Z,93.23
2022-11-11T18:15:02.974Z,94.11
2022-11-11T18:17:34.160Z,93.98
2022-11-11T18:20:03.886Z,94.05
2022-11-11T18:22:33.509Z,94.07
2022-11-11T18:25:03.699Z,94.65
2022-11-11T18:27:33.284Z,94.36
2022-11-11T18:30:02.812Z,94.24
2022-11-11T18:32:32.402Z,94.48
2022-11-11T18:35:03.384Z,94.49
2022-11-11T18:37:36.772Z,94.77
2022-11-11T18:40:06.981Z,94.10
2022-11-11T18:42:36.591Z,94.43
2022-11-11T18:45:06.715Z,94.20
2022-11-11T18:47:36.236Z,94.67
2022-11-11T18:50:07.544Z,94.52
2022-11-11T18:52:37.260Z,94.35
2022-11-11T18:55:07.568Z,94.52
2022-11-11T18:57:37.170Z,94.17
2022-11-11T19:00:07.156Z,94.43
2022-11-11T19:02:36.711Z,94.68
2022-11-11T19:05:10.298Z,94.29
2022-11-11T19:07:39.860Z,94.74
2022-11-11T19:10:09.843Z,95.14
2022-11-11T19:12:39.828Z,94.51
2022-11-11T19:15:11.282Z,94.60
2022-11-11T19:17:40.889Z,95.09
2022-11-11T19:20:12.106Z,94.97
2022-11-11T19:22:41.705Z,95.15
2022-11-11T19:25:11.538Z,95.35
2022-11-11T19:27:41.206Z,95.38
2022-11-11T19:30:11.653Z,95.08
2022-11-11T19:32:42.340Z,96.07
2022-11-11T19:35:23.503Z,95.63
2022-11-11T19:37:53.221Z,95.71
2022-11-11T19:40:23.048Z,96.44
2022-11-11T19:42:52.675Z,96.17
2022-11-11T19:45:22.618Z,96.22
2022-11-11T19:47:52.680Z,96.18
2022-11-11T19:50:23.590Z,96.03
2022-11-11T19:52:53.157Z,96.26
2022-11-11T19:55:22.737Z,96.36
2022-11-11T19:57:52.776Z,96.57
2022-11-11T20:00:22.509Z,96.52
2022-11-11T20:02:52.351Z,96.44
2022-11-11T20:05:23.456Z,96.66
2022-11-11T20:07:54.864Z,96.98
2022-11-11T20:10:24.384Z,96.71
2022-11-11T20:12:54.537Z,96.95
2022-11-11T20:15:24.636Z,96.61
2022-11-11T20:17:54.746Z,96.97
2022-11-11T20:20:25.869Z,96.71
2022-11-11T20:22:55.690Z,97.29
2022-11-11T20:25:25.434Z,96.57
2022-11-11T20:27:55.142Z,97.15
2022-11-11T20:30:24.814Z,97.27
2022-11-11T20:32:54.390Z,97.51
2022-11-11T20:35:25.371Z,97.33
2022-11-11T20:37:55.033Z,97.33
2022-11-11T20:40:24.608Z,97.62
2022-11-11T20:42:54.263Z,97.96
2022-11-11T20:45:23.854Z,97.87
2022-11-11T20:47:53.469Z,97.43
2022-11-11T20:50:23.039Z,97.80
2022-11-11T20:52:55.079Z,97.81
2022-11-11T20:55:24.698Z,98.48
2022-11-11T20:57:54.716Z,98.64
2022-11-11T21:00:24.384Z,97.61
2022-11-11T21:02:53.973Z,98.09
2022-11-11T21:05:23.710Z,97.49
2022-11-11T21:07:54.605Z,97.58
2022-11-11T21:10:24.384Z,98.49
2022-11-11T21:12:59.479Z,98.28
2022-11-11T21:15:32.561Z,98.18
2022-11-11T21:18:02.759Z,97.60
2022-11-11T21:20:32.453Z,97.44
2022-11-11T21:23:03.453Z,98.19
2022-11-11T21:25:33.412Z,98.28
2022-11-11T21:28:05.581Z,97.86
2022-11-11T21:30:35.102Z,98.09
2022-11-11T21:33:08.159Z,97.98
2022-11-11T21:35:38.976Z,97.52
2022-11-11T21:38:10.068Z,97.85
2022-11-11T21:40:39.650Z,97.19
2022-11-11T21:43:11.556Z,97.91
2022-11-11T21:45:41.119Z,96.87
2022-11-11T21:48:10.852Z,97.38
2022-11-11T21:50:40.520Z,97.51
2022-11-11T21:53:11.525Z,97.46
2022-11-11T21:55:41.214Z,97.78
2022-11-11T21:58:10.918Z,97.26
2022-11-11T22:00:40.478Z,97.51
2022-11-11T22:03:10.056Z,97.48
2022-11-11T22:05:39.611Z,97.13
2022-11-11T22:08:09.216Z,96.76
2022-11-11T22:10:40.087Z,97.47
2022-11-11T22:13:10.321Z,97.71
2022-11-11T22:15:40.280Z,97.20
2022-11-11T22:18:09.839Z,96.80
2022-11-11T22:20:39.497Z,96.70
2022-11-11T22:23:09.037Z,96.92
2022-11-11T22:25:39.939Z,96.68
2022-11-11T22:28:09.592Z,96.39
2022-11-11T22:30:39.202Z,96.76
2022-11-11T22:33:09.353Z,96.38
2022-11-11T22:35:38.900Z,96.22
2022-11-11T22:38:08.606Z,95.93
2022-11-11T22:40:38.330Z,96.69
2022-11-11T22:43:09.393Z,96.08
2022-11-11T22:45:39.433Z,96.16
2022-11-11T22:48:09.094Z,95.77
2022-11-11T22:50:38.599Z,96.59
2022-11-11T22:53:08.103Z,96.96
2022-11-11T22:55:37.663Z,97.56
2022-11-11T22:58:07.246Z,96.76
2022-11-11T23:00:38.609Z,96.51
2022-11-11T23:03:13.111Z,96.55
2022-11-11T23:05:42.794Z,96.52
2022-11-11T23:08:12.400Z,97.09
2022-11-11T23:10:41.949Z,96.49
2022-11-11T23:13:12.105Z,95.72
2022-11-11T23:15:51.491Z,96.13
2022-11-11T23:18:21.389Z,96.06
2022-11-11T23:20:54.388Z,96.54
2022-11-11T23:23:24.232Z,96.72
2022-11-11T23:25:53.923Z,96.48
2022-11-11T23:28:23.858Z,96.92
2022-11-11T23:30:55.025Z,96.46
2022-11-11T23:33:24.602Z,96.04
2022-11-11T23:35:54.161Z,95.79
2022-11-11T23:38:23.937Z,94.94
2022-11-11T23:40:54.179Z,96.05
2022-11-11T23:43:23.979Z,95.96
2022-11-11T23:45:57.456Z,96.07
2022-11-11T23:48:28.669Z,95.98
2022-11-11T23:50:58.951Z,96.55
2022-11-11T23:53:28.801Z,95.56
2022-11-11T23:55:58.427Z,94.30
2022-11-11T23:58:28.559Z,95.51
